CXA3025 ZLDH-ZLXY
Flight info
| Callsign | CXA3025 |
|---|---|
| Flight time | N/A |
| Altitude | 37100 |
| Route | VIKUP1 VIKUP W191 DNC W565 BIGUX W214 HO HO1Z |
| Aircraft | B38M/M-SDE1FGHILORVWXY/HB1 |
Departure
| Time | 2026-05-05 12:17 |
|---|---|
| Airport | Dunhuang Mogao International Airport (ZLDH) |
Arrival
| Time | N/A |
|---|---|
| Airport | Xi'an Xianyang International Airport (ZLXY) |
| Time | Latitude | Longitude | Altitude | Speed | Heading |
|---|---|---|---|---|---|
| 2026-05-05 11:47 | 40.16490 | 94.80542 | 3701 ft | 0 kts | 354° |
| 2026-05-05 12:10 | 40.16479 | 94.80544 | 3706 ft | 4 kts | 354° |
| 2026-05-05 12:11 | 40.16452 | 94.80547 | 3702 ft | 4 kts | 354° |
| 2026-05-05 12:11 | 40.16417 | 94.80552 | 3704 ft | 4 kts | 354° |
| 2026-05-05 12:11 | 40.16404 | 94.80554 | 3701 ft | 4 kts | 340° |
| 2026-05-05 12:11 | 40.16394 | 94.80571 | 3707 ft | 4 kts | 266° |
| 2026-05-05 12:12 | 40.16396 | 94.80604 | 3702 ft | 4 kts | 264° |
| 2026-05-05 12:12 | 40.16398 | 94.80623 | 3700 ft | 0 kts | 264° |
| 2026-05-05 12:14 | 40.16396 | 94.80603 | 3703 ft | 7 kts | 264° |
| 2026-05-05 12:14 | 40.16389 | 94.80506 | 3702 ft | 13 kts | 264° |
| 2026-05-05 12:14 | 40.16379 | 94.80383 | 3698 ft | 14 kts | 264° |
| 2026-05-05 12:14 | 40.16358 | 94.80258 | 3707 ft | 13 kts | 235° |
| 2026-05-05 12:15 | 40.16300 | 94.80243 | 3696 ft | 8 kts | 176° |
| 2026-05-05 12:15 | 40.16236 | 94.80255 | 3695 ft | 11 kts | 173° |
| 2026-05-05 12:15 | 40.16148 | 94.80255 | 3690 ft | 14 kts | 205° |
| 2026-05-05 12:15 | 40.16107 | 94.80136 | 3688 ft | 15 kts | 263° |
| 2026-05-05 12:16 | 40.16095 | 94.79989 | 3688 ft | 18 kts | 264° |
| 2026-05-05 12:16 | 40.16082 | 94.79799 | 3687 ft | 24 kts | 264° |
| 2026-05-05 12:16 | 40.16067 | 94.79569 | 3687 ft | 26 kts | 265° |
| 2026-05-05 12:16 | 40.16098 | 94.79350 | 3690 ft | 24 kts | 269° |
| 2026-05-05 12:17 | 40.16045 | 94.79300 | 3688 ft | 11 kts | 111° |
| 2026-05-05 12:17 | 40.16050 | 94.79405 | 3686 ft | 14 kts | 83° |
| 2026-05-05 12:17 | 40.16082 | 94.79787 | 3687 ft | 74 kts | 84° |
| 2026-05-05 12:17 | 40.16155 | 94.80705 | 3692 ft | 128 kts | 85° |
| 2026-05-05 12:18 | 40.16293 | 94.82055 | 3732 ft | 165 kts | 79° |
| 2026-05-05 12:18 | 40.16404 | 94.83605 | 4082 ft | 179 kts | 83° |
| 2026-05-05 12:18 | 40.16510 | 94.85250 | 4627 ft | 183 kts | 78° |
| 2026-05-05 12:18 | 40.16633 | 94.86886 | 5261 ft | 184 kts | 77° |
| 2026-05-05 12:19 | 40.16772 | 94.88612 | 5562 ft | 203 kts | 79° |
| 2026-05-05 12:19 | 40.16926 | 94.90560 | 5798 ft | 229 kts | 80° |
| 2026-05-05 12:19 | 40.17093 | 94.92736 | 6105 ft | 251 kts | 79° |
| 2026-05-05 12:19 | 40.17266 | 94.95050 | 6620 ft | 262 kts | 80° |
| 2026-05-05 12:20 | 40.17452 | 94.97488 | 7096 ft | 275 kts | 82° |
| 2026-05-05 12:20 | 40.17643 | 95.00013 | 7698 ft | 282 kts | 82° |
| 2026-05-05 12:20 | 40.17836 | 95.02593 | 8330 ft | 287 kts | 82° |
| 2026-05-05 12:20 | 40.18029 | 95.05180 | 9022 ft | 292 kts | 81° |
| 2026-05-05 12:21 | 40.18016 | 95.07851 | 9686 ft | 299 kts | 101° |
| 2026-05-05 12:21 | 40.17194 | 95.10364 | 10188 ft | 310 kts | 126° |
| 2026-05-05 12:21 | 40.15561 | 95.12293 | 10446 ft | 328 kts | 152° |
| 2026-05-05 12:21 | 40.13341 | 95.13166 | 10667 ft | 344 kts | 175° |
| 2026-05-05 12:22 | 40.10886 | 95.13351 | 10855 ft | 362 kts | 174° |
| 2026-05-05 12:22 | 40.08313 | 95.13708 | 10969 ft | 382 kts | 173° |
| 2026-05-05 12:22 | 40.05608 | 95.14084 | 11039 ft | 399 kts | 174° |
| 2026-05-05 12:22 | 40.02805 | 95.14450 | 11214 ft | 409 kts | 174° |
| 2026-05-05 12:23 | 40.00005 | 95.14813 | 11691 ft | 411 kts | 174° |
| 2026-05-05 12:23 | 39.97142 | 95.15194 | 12084 ft | 416 kts | 172° |
| 2026-05-05 12:23 | 39.94302 | 95.15912 | 12734 ft | 413 kts | 165° |
| 2026-05-05 12:23 | 39.91567 | 95.16921 | 13726 ft | 404 kts | 162° |
| 2026-05-05 12:24 | 39.88884 | 95.18016 | 14433 ft | 406 kts | 162° |
| 2026-05-05 12:24 | 39.86134 | 95.19051 | 14763 ft | 418 kts | 165° |
| 2026-05-05 12:24 | 39.83243 | 95.19842 | 14994 ft | 431 kts | 171° |
| 2026-05-05 12:24 | 39.80231 | 95.20195 | 15365 ft | 439 kts | 179° |
| 2026-05-05 12:25 | 39.77195 | 95.19871 | 16009 ft | 436 kts | 192° |
| 2026-05-05 12:25 | 39.74350 | 95.18734 | 16725 ft | 434 kts | 205° |
| 2026-05-05 12:25 | 39.71735 | 95.16735 | 16943 ft | 443 kts | 220° |
| 2026-05-05 12:25 | 39.69687 | 95.13703 | 16770 ft | 456 kts | 241° |
| 2026-05-05 12:26 | 39.68496 | 95.09910 | 16410 ft | 448 kts | 259° |
| 2026-05-05 12:26 | 39.68223 | 95.05945 | 15670 ft | 439 kts | 276° |
| 2026-05-05 12:26 | 39.68887 | 95.02089 | 14542 ft | 441 kts | 294° |
| 2026-05-05 12:26 | 39.70486 | 94.98705 | 13478 ft | 441 kts | 314° |
| 2026-05-05 12:27 | 39.72855 | 94.96274 | 12768 ft | 431 kts | 334° |
| 2026-05-05 12:27 | 39.75651 | 94.95113 | 12307 ft | 416 kts | 353° |
| 2026-05-05 12:27 | 39.78514 | 94.95302 | 11393 ft | 416 kts | 15° |
| 2026-05-05 12:27 | 39.81142 | 94.96805 | 10249 ft | 424 kts | 33° |
| 2026-05-05 12:28 | 39.83278 | 94.99351 | 10071 ft | 408 kts | 52° |
| 2026-05-05 12:28 | 39.84592 | 95.02481 | 10219 ft | 388 kts | 69° |
| 2026-05-05 12:28 | 39.85063 | 95.05922 | 9800 ft | 389 kts | 87° |
| 2026-05-05 12:28 | 39.84655 | 95.09457 | 8611 ft | 407 kts | 106° |
| 2026-05-05 12:29 | 39.83309 | 95.12772 | 7510 ft | 423 kts | 126° |
| 2026-05-05 12:29 | 39.80867 | 95.15534 | 7651 ft | 308 kts | 148° |
| 2026-05-05 12:29 | 39.79379 | 95.16634 | 7896 ft | 301 kts | 148° |
| 2026-05-05 12:29 | 39.77187 | 95.18266 | 8106 ft | 297 kts | 148° |
| 2026-05-05 12:30 | 39.75815 | 95.19288 | 8382 ft | 302 kts | 148° |
| 2026-05-05 12:30 | 39.73774 | 95.20772 | 8401 ft | 298 kts | 149° |
| 2026-05-05 12:30 | 39.72159 | 95.21938 | 9265 ft | 301 kts | 148° |
| 2026-05-05 12:30 | 39.70567 | 95.23096 | 9750 ft | 298 kts | 148° |
| 2026-05-05 12:31 | 39.68963 | 95.24249 | 9903 ft | 302 kts | 148° |
| 2026-05-05 12:31 | 39.67318 | 95.25627 | 10665 ft | 298 kts | 144° |
| 2026-05-05 12:31 | 39.65532 | 95.27159 | 10934 ft | 300 kts | 145° |
| 2026-05-05 12:31 | 39.64228 | 95.28262 | 11942 ft | 300 kts | 144° |
| 2026-05-05 12:32 | 39.62498 | 95.29780 | 13125 ft | 297 kts | 143° |
| 2026-05-05 12:32 | 39.61009 | 95.31067 | 12639 ft | 302 kts | 145° |
| 2026-05-05 12:32 | 39.59348 | 95.32445 | 13713 ft | 300 kts | 146° |
| 2026-05-05 12:32 | 39.57345 | 95.34074 | 14511 ft | 300 kts | 146° |
| 2026-05-05 12:33 | 39.55570 | 95.35488 | 13570 ft | 305 kts | 147° |
| 2026-05-05 12:33 | 39.53819 | 95.36895 | 12377 ft | 300 kts | 146° |
| 2026-05-05 12:33 | 39.52003 | 95.38370 | 11451 ft | 296 kts | 147° |
| 2026-05-05 12:33 | 39.50832 | 95.39331 | 11033 ft | 294 kts | 146° |
| 2026-05-05 12:34 | 39.49031 | 95.40823 | 10723 ft | 298 kts | 146° |
| 2026-05-05 12:34 | 39.47173 | 95.42358 | 10430 ft | 301 kts | 146° |
| 2026-05-05 12:34 | 39.45456 | 95.43757 | 11133 ft | 297 kts | 146° |
| 2026-05-05 12:34 | 39.43933 | 95.45012 | 11518 ft | 293 kts | 147° |
| 2026-05-05 12:35 | 39.42317 | 95.46355 | 11606 ft | 293 kts | 147° |
| 2026-05-05 12:35 | 39.40663 | 95.47721 | 12164 ft | 301 kts | 147° |
| 2026-05-05 12:35 | 39.38838 | 95.49188 | 12373 ft | 303 kts | 147° |
| 2026-05-05 12:35 | 39.37289 | 95.50480 | 13202 ft | 300 kts | 144° |
| 2026-05-05 12:36 | 39.34392 | 95.52995 | 15133 ft | 277 kts | 146° |
| 2026-05-05 12:36 | 39.32772 | 95.54327 | 15063 ft | 283 kts | 148° |
| 2026-05-05 12:36 | 39.30568 | 95.56145 | 15354 ft | 293 kts | 143° |
| 2026-05-05 12:37 | 39.29416 | 95.57200 | 15195 ft | 307 kts | 142° |
| 2026-05-05 12:37 | 39.27703 | 95.58915 | 15337 ft | 304 kts | 139° |
| 2026-05-05 12:37 | 39.26156 | 95.60622 | 16097 ft | 295 kts | 135° |
| 2026-05-05 12:37 | 39.24203 | 95.63016 | 16901 ft | 284 kts | 132° |
| 2026-05-05 12:38 | 39.23310 | 95.64222 | 17314 ft | 278 kts | 130° |
| 2026-05-05 12:38 | 39.22054 | 95.66062 | 17912 ft | 268 kts | 127° |
| 2026-05-05 12:38 | 39.20951 | 95.67925 | 18515 ft | 255 kts | 114° |
| 2026-05-05 12:38 | 39.20454 | 95.70071 | 18432 ft | 259 kts | 90° |
| 2026-05-05 12:39 | 39.20750 | 95.73389 | 15439 ft | 326 kts | 70° |
| 2026-05-05 12:39 | 39.21363 | 95.75366 | 14421 ft | 369 kts | 60° |
| 2026-05-05 12:39 | 39.22625 | 95.78041 | 15285 ft | 340 kts | 55° |
| 2026-05-05 12:39 | 39.23549 | 95.80879 | 15384 ft | 351 kts | 75° |
| 2026-05-05 12:40 | 39.23612 | 95.84042 | 15573 ft | 359 kts | 95° |
| 2026-05-05 12:40 | 39.22962 | 95.87188 | 15625 ft | 367 kts | 103° |
| 2026-05-05 12:40 | 39.22530 | 95.90415 | 15625 ft | 365 kts | 90° |
| 2026-05-05 12:40 | 39.22417 | 95.93699 | 15646 ft | 369 kts | 87° |
| 2026-05-05 12:41 | 39.22422 | 95.97065 | 15615 ft | 386 kts | 86° |
| 2026-05-05 12:41 | 39.22512 | 96.00563 | 15742 ft | 380 kts | 84° |
| 2026-05-05 12:41 | 39.22653 | 96.03905 | 16079 ft | 370 kts | 83° |
| 2026-05-05 12:41 | 39.22814 | 96.07262 | 16269 ft | 393 kts | 83° |
| 2026-05-05 12:42 | 40.16490 | 94.80542 | 3697 ft | 0 kts | 354° |